createdAt,value
2023-03-06T00:00:56.721Z,9.31
2023-03-06T00:03:27.877Z,9.29
2023-03-06T00:05:57.396Z,9.33
2023-03-06T00:08:27.182Z,9.34
2023-03-06T00:10:56.214Z,9.37
2023-03-06T00:13:26.541Z,9.32
2023-03-06T00:15:55.044Z,9.29
2023-03-06T00:18:23.190Z,9.25
2023-03-06T00:20:52.547Z,9.28
2023-03-06T00:23:20.783Z,9.26
2023-03-06T00:25:48.774Z,9.29
2023-03-06T00:28:17.797Z,9.25
2023-03-06T00:30:47.481Z,9.26
2023-03-06T00:33:15.574Z,9.23
2023-03-06T00:35:43.959Z,9.28
2023-03-06T00:38:15.022Z,9.31
2023-03-06T00:40:43.166Z,9.31
2023-03-06T00:43:11.482Z,9.32
2023-03-06T00:45:40.219Z,9.30
2023-03-06T00:48:09.618Z,9.30
2023-03-06T00:50:37.698Z,9.29
2023-03-06T00:53:06.104Z,9.32
2023-03-06T00:55:35.502Z,9.32
2023-03-06T00:58:03.486Z,9.30
2023-03-06T01:00:31.790Z,9.31
2023-03-06T01:03:00.051Z,9.26
2023-03-06T01:05:28.231Z,9.18
2023-03-06T01:07:56.519Z,9.05
2023-03-06T01:10:24.826Z,9.09
2023-03-06T01:12:54.700Z,9.05
2023-03-06T01:15:23.486Z,9.12
2023-03-06T01:17:54.122Z,9.00
2023-03-06T01:20:22.504Z,8.98
2023-03-06T01:22:50.724Z,9.00
2023-03-06T01:25:19.478Z,9.00
2023-03-06T01:27:48.020Z,8.99
2023-03-06T01:30:18.083Z,8.97
2023-03-06T01:32:48.153Z,8.94
2023-03-06T01:35:17.235Z,8.91
2023-03-06T01:37:45.484Z,8.87
2023-03-06T01:40:14.540Z,8.85
2023-03-06T01:42:43.260Z,8.82
2023-03-06T01:45:44.677Z,8.81
2023-03-06T01:48:14.499Z,8.76
2023-03-06T01:50:42.689Z,8.69
2023-03-06T01:53:11.637Z,8.69
2023-03-06T01:55:40.538Z,8.61
2023-03-06T01:58:13.400Z,8.51
2023-03-06T02:00:41.618Z,8.47
2023-03-06T02:03:13.712Z,8.43
2023-03-06T02:05:44.754Z,8.40
2023-03-06T02:08:15.894Z,8.30
2023-03-06T02:10:45.070Z,8.27
2023-03-06T02:13:13.961Z,8.17
2023-03-06T02:15:42.114Z,8.17
2023-03-06T02:18:10.494Z,8.19
2023-03-06T02:20:44.809Z,8.13
2023-03-06T02:23:22.131Z,8.16
2023-03-06T02:25:53.657Z,8.16
2023-03-06T02:28:25.369Z,8.11
2023-03-06T02:30:55.157Z,8.11
2023-03-06T02:33:26.183Z,8.11
2023-03-06T02:35:55.861Z,8.11
2023-03-06T02:38:29.097Z,8.15
2023-03-06T02:40:58.945Z,8.11
2023-03-06T02:43:32.671Z,8.11
2023-03-06T02:46:00.991Z,8.04
2023-03-06T02:48:29.301Z,8.10
2023-03-06T02:50:57.401Z,8.14
2023-03-06T02:53:25.631Z,8.15
2023-03-06T02:55:54.413Z,8.17
2023-03-06T02:58:23.786Z,8.11
2023-03-06T03:00:52.008Z,8.08
2023-03-06T03:03:20.501Z,8.13
2023-03-06T03:05:48.579Z,8.11
2023-03-06T03:08:18.120Z,8.07
2023-03-06T03:10:46.890Z,8.13
2023-03-06T03:13:15.168Z,8.14
2023-03-06T03:15:45.432Z,8.13
2023-03-06T03:18:13.773Z,8.11
2023-03-06T03:20:43.697Z,8.15
2023-03-06T03:23:11.820Z,8.13
2023-03-06T03:25:40.120Z,8.18
2023-03-06T03:28:08.373Z,8.19
2023-03-06T03:30:36.459Z,8.23
2023-03-06T03:33:06.202Z,8.22
2023-03-06T03:35:34.400Z,8.21
2023-03-06T03:38:02.458Z,8.23
2023-03-06T03:40:31.068Z,8.24
2023-03-06T03:42:59.771Z,8.23
2023-03-06T03:45:28.602Z,8.24
2023-03-06T03:47:56.895Z,8.24
2023-03-06T03:50:26.957Z,8.24
2023-03-06T03:52:55.388Z,8.24
2023-03-06T03:55:24.100Z,8.26
2023-03-06T03:57:52.348Z,8.27
2023-03-06T04:00:21.027Z,8.27
2023-03-06T04:02:52.607Z,8.28
2023-03-06T04:05:21.720Z,8.27
2023-03-06T04:07:51.268Z,8.30
2023-03-06T04:10:20.632Z,8.30
2023-03-06T04:12:48.627Z,8.31
2023-03-06T04:15:16.895Z,8.29
2023-03-06T04:17:46.233Z,8.26
2023-03-06T04:20:15.029Z,8.20
2023-03-06T04:22:43.444Z,8.17
2023-03-06T04:25:13.440Z,8.18
2023-03-06T04:27:41.735Z,7.84
2023-03-06T04:30:11.354Z,7.99
2023-03-06T04:32:39.931Z,7.81
2023-03-06T04:35:08.814Z,7.90
2023-03-06T04:37:37.553Z,7.69
2023-03-06T04:40:07.191Z,7.68
2023-03-06T04:42:36.778Z,7.75
2023-03-06T04:45:05.134Z,7.73
2023-03-06T04:47:33.378Z,7.77
2023-03-06T04:50:01.368Z,7.76
2023-03-06T04:52:29.356Z,7.74
2023-03-06T04:54:58.048Z,7.70
2023-03-06T04:57:26.112Z,7.65
2023-03-06T04:59:55.528Z,7.59
2023-03-06T05:02:24.708Z,7.46
2023-03-06T05:04:52.817Z,7.54
2023-03-06T05:07:20.887Z,7.53
2023-03-06T05:09:49.270Z,7.54
2023-03-06T05:12:17.333Z,7.52
2023-03-06T05:14:47.740Z,7.50
2023-03-06T05:17:17.677Z,7.47
2023-03-06T05:19:45.826Z,7.42
2023-03-06T05:22:13.945Z,7.41
2023-03-06T05:24:42.231Z,7.40
2023-03-06T05:27:10.190Z,7.42
2023-03-06T05:29:38.299Z,7.39
2023-03-06T05:32:07.226Z,7.41
2023-03-06T05:34:36.789Z,7.39
2023-03-06T05:37:04.873Z,7.36
2023-03-06T05:39:33.358Z,7.36
2023-03-06T05:42:01.432Z,7.39
2023-03-06T05:44:32.190Z,7.40
2023-03-06T05:47:01.169Z,7.42
2023-03-06T05:49:34.085Z,7.50
2023-03-06T05:52:05.031Z,7.57
2023-03-06T05:54:33.677Z,7.58
2023-03-06T05:57:01.998Z,7.60
2023-03-06T05:59:32.869Z,7.51
2023-03-06T06:02:01.459Z,7.55
2023-03-06T06:04:29.784Z,7.55
2023-03-06T06:07:00.204Z,7.62
2023-03-06T06:09:30.689Z,7.69
2023-03-06T06:12:01.896Z,7.75
2023-03-06T06:14:30.378Z,7.78
2023-03-06T06:16:58.683Z,7.74
2023-03-06T06:19:31.690Z,7.86
2023-03-06T06:22:02.519Z,7.92
2023-03-06T06:24:33.481Z,7.97
2023-03-06T06:27:03.853Z,8.02
2023-03-06T06:29:32.852Z,7.96
2023-03-06T06:32:01.665Z,8.08
2023-03-06T06:34:30.575Z,8.14
2023-03-06T06:36:58.612Z,8.17
2023-03-06T06:39:28.974Z,8.21
2023-03-06T06:42:20.291Z,8.25
2023-03-06T06:44:46.721Z,8.24
2023-03-06T06:47:24.552Z,8.35
2023-03-06T06:49:54.700Z,8.36
2023-03-06T06:52:24.747Z,8.44
2023-03-06T06:54:53.472Z,8.50
2023-03-06T06:57:22.871Z,8.57
2023-03-06T06:59:53.425Z,8.57
2023-03-06T07:02:23.484Z,8.61
2023-03-06T07:05:06.962Z,8.67
2023-03-06T07:07:36.993Z,8.70
2023-03-06T07:10:07.034Z,8.76
2023-03-06T07:12:37.688Z,8.72
2023-03-06T07:15:08.046Z,8.82
2023-03-06T07:17:36.202Z,8.84
2023-03-06T07:20:07.188Z,8.79
2023-03-06T07:22:50.017Z,8.90
2023-03-06T07:25:19.112Z,8.95
2023-03-06T07:27:53.244Z,8.99
2023-03-06T07:30:22.822Z,9.03
2023-03-06T07:32:53.942Z,9.06
2023-03-06T07:35:22.679Z,9.05
2023-03-06T07:37:51.206Z,9.07
2023-03-06T07:40:20.695Z,9.04
2023-03-06T07:42:50.245Z,9.00
2023-03-06T07:45:21.907Z,9.02
2023-03-06T07:47:51.318Z,9.07
2023-03-06T07:50:20.948Z,9.03
2023-03-06T07:52:49.719Z,8.96
2023-03-06T07:55:18.922Z,9.04
2023-03-06T07:57:47.332Z,9.04
2023-03-06T08:00:17.913Z,9.08
2023-03-06T08:02:46.474Z,9.07
2023-03-06T08:05:16.457Z,9.20
2023-03-06T08:07:45.602Z,9.30
2023-03-06T08:10:16.627Z,9.31
2023-03-06T08:12:45.013Z,9.48
2023-03-06T08:15:14.538Z,9.59
2023-03-06T08:17:44.143Z,9.73
2023-03-06T08:20:14.512Z,9.80
2023-03-06T08:22:43.103Z,9.88
2023-03-06T08:25:13.466Z,9.95
2023-03-06T08:27:41.931Z,10.00
2023-03-06T08:30:11.533Z,10.01
2023-03-06T08:32:39.573Z,10.04
2023-03-06T08:35:10.046Z,10.14
2023-03-06T08:37:38.414Z,10.09
2023-03-06T08:40:07.639Z,10.20
2023-03-06T08:42:35.622Z,10.23
2023-03-06T08:45:04.241Z,9.97
2023-03-06T08:47:32.253Z,10.14
2023-03-06T08:50:00.889Z,10.16
2023-03-06T08:52:30.633Z,10.19
2023-03-06T08:55:03.489Z,10.28
2023-03-06T08:57:31.855Z,10.35
2023-03-06T08:59:59.805Z,10.27
2023-03-06T09:02:28.129Z,10.30
2023-03-06T09:04:56.477Z,10.43
2023-03-06T09:07:24.456Z,10.40
2023-03-06T09:09:56.837Z,10.53
2023-03-06T09:12:25.644Z,10.40
2023-03-06T09:14:53.830Z,10.60
2023-03-06T09:17:24.253Z,10.76
2023-03-06T09:19:52.662Z,10.93
2023-03-06T09:22:20.629Z,11.09
2023-03-06T09:24:49.067Z,10.75
2023-03-06T09:27:18.746Z,11.11
2023-03-06T09:29:46.660Z,10.86
2023-03-06T09:32:14.704Z,10.53
2023-03-06T09:34:43.118Z,10.81
2023-03-06T09:37:11.109Z,10.98
2023-03-06T09:39:39.083Z,10.97
2023-03-06T09:42:08.916Z,11.23
2023-03-06T09:44:41.118Z,10.92
2023-03-06T09:47:41.504Z,11.18
2023-03-06T09:50:33.594Z,11.65
2023-03-06T09:53:32.473Z,11.97
2023-03-06T09:56:04.907Z,12.10
2023-03-06T09:58:38.531Z,12.12
2023-03-06T10:01:17.378Z,12.09
2023-03-06T10:03:51.806Z,11.64
2023-03-06T10:06:25.318Z,11.89
2023-03-06T10:08:59.047Z,12.11
2023-03-06T10:11:33.346Z,11.99
2023-03-06T10:14:17.474Z,11.80
2023-03-06T10:16:46.992Z,11.87
2023-03-06T10:19:17.560Z,11.93
2023-03-06T10:21:52.357Z,12.03
2023-03-06T10:24:41.128Z,12.09
2023-03-06T10:27:17.491Z,12.02
2023-03-06T10:30:02.707Z,12.08
2023-03-06T10:32:49.176Z,12.13
2023-03-06T10:35:21.225Z,11.94
2023-03-06T10:37:49.775Z,11.91
2023-03-06T10:40:35.744Z,11.76
2023-03-06T10:43:11.404Z,11.54
2023-03-06T10:45:49.773Z,11.49
2023-03-06T10:48:22.020Z,11.65
2023-03-06T10:50:50.476Z,11.60
2023-03-06T10:53:25.218Z,11.30
2023-03-06T10:55:59.184Z,11.48
2023-03-06T10:58:29.079Z,11.29
2023-03-06T11:01:07.889Z,11.11
2023-03-06T11:03:37.877Z,11.10
2023-03-06T11:06:12.619Z,10.76
2023-03-06T11:08:42.889Z,11.04
2023-03-06T11:11:36.867Z,11.03
2023-03-06T11:14:16.330Z,11.26
2023-03-06T11:16:52.713Z,10.98
2023-03-06T11:19:26.514Z,11.22
2023-03-06T11:22:03.306Z,11.44
2023-03-06T11:24:37.112Z,11.64
2023-03-06T11:27:18.823Z,11.96
2023-03-06T11:29:49.539Z,12.27
2023-03-06T11:32:23.485Z,12.27
2023-03-06T11:34:58.721Z,12.72
2023-03-06T11:37:43.300Z,13.09
2023-03-06T11:40:18.557Z,12.97
2023-03-06T11:42:54.467Z,13.20
2023-03-06T11:45:28.663Z,13.01
2023-03-06T11:48:04.893Z,13.14
2023-03-06T11:50:37.988Z,13.20
2023-03-06T11:53:11.535Z,13.20
2023-03-06T11:55:47.140Z,13.05
2023-03-06T11:58:52.490Z,12.92
2023-03-06T12:01:27.043Z,12.98
2023-03-06T12:04:07.865Z,13.08
2023-03-06T12:06:46.795Z,13.08
2023-03-06T12:09:27.478Z,13.21
2023-03-06T12:12:11.312Z,13.03
2023-03-06T12:15:00.300Z,13.10
2023-03-06T12:17:37.320Z,13.19
2023-03-06T12:20:23.872Z,12.85
2023-03-06T12:23:02.383Z,13.08
2023-03-06T12:25:38.596Z,13.16
2023-03-06T12:28:32.052Z,13.05
2023-03-06T12:31:25.664Z,12.81
2023-03-06T12:34:07.148Z,12.70
2023-03-06T12:36:47.145Z,12.63
2023-03-06T12:39:28.335Z,12.80
2023-03-06T12:42:22.614Z,12.83
2023-03-06T12:45:03.181Z,13.08
2023-03-06T12:47:38.958Z,13.08
2023-03-06T12:50:19.082Z,12.85
2023-03-06T12:52:48.116Z,12.52
2023-03-06T12:55:24.296Z,12.52
2023-03-06T12:57:54.413Z,12.38
2023-03-06T13:01:03.529Z,12.28
2023-03-06T13:03:44.870Z,12.14
2023-03-06T13:06:39.264Z,12.45
2023-03-06T13:09:20.731Z,12.52
2023-03-06T13:12:10.891Z,12.71
2023-03-06T13:14:57.708Z,12.62
2023-03-06T13:17:37.677Z,12.54
2023-03-06T13:20:35.103Z,12.26
2023-03-06T13:23:42.914Z,12.50
2023-03-06T13:26:32.135Z,12.71
2023-03-06T13:29:01.588Z,12.99
2023-03-06T13:32:08.732Z,13.23
2023-03-06T13:34:38.934Z,13.16
2023-03-06T13:37:39.152Z,13.60
2023-03-06T13:40:30.663Z,13.78
2023-03-06T13:43:22.038Z,13.93
2023-03-06T13:45:51.821Z,14.09
2023-03-06T13:48:43.674Z,14.11
2023-03-06T13:51:24.253Z,14.04
2023-03-06T13:54:21.488Z,14.04
2023-03-06T13:57:11.696Z,13.77
2023-03-06T14:00:08.781Z,13.58
2023-03-06T14:03:19.909Z,12.85
2023-03-06T14:05:51.382Z,12.30
2023-03-06T14:08:21.278Z,12.02
2023-03-06T14:10:59.033Z,11.99
2023-03-06T14:13:41.888Z,11.91
2023-03-06T14:16:20.201Z,11.88
2023-03-06T14:18:50.421Z,11.82
2023-03-06T14:21:30.897Z,11.74
2023-03-06T14:24:03.367Z,11.82
2023-03-06T14:26:34.595Z,11.80
2023-03-06T14:29:04.098Z,11.76
2023-03-06T14:31:34.468Z,11.46
2023-03-06T14:34:05.886Z,11.61
2023-03-06T14:36:43.090Z,11.76
2023-03-06T14:39:15.591Z,11.69
2023-03-06T14:41:43.597Z,11.68
2023-03-06T14:44:18.077Z,11.82
2023-03-06T14:46:47.694Z,11.99
2023-03-06T14:49:16.635Z,12.10
2023-03-06T14:51:47.867Z,12.14
2023-03-06T14:54:20.484Z,12.09
2023-03-06T14:56:51.412Z,12.11
2023-03-06T14:59:25.752Z,12.17
2023-03-06T15:01:59.328Z,12.21
2023-03-06T15:04:32.965Z,12.24
2023-03-06T15:07:02.850Z,12.18
2023-03-06T15:09:33.703Z,12.17
2023-03-06T15:12:03.542Z,12.00
2023-03-06T15:14:35.832Z,12.11
2023-03-06T15:17:21.600Z,12.07
2023-03-06T15:19:51.517Z,12.13
2023-03-06T15:22:27.384Z,12.07
2023-03-06T15:25:26.826Z,12.05
2023-03-06T15:27:58.049Z,11.99
2023-03-06T15:30:30.360Z,12.06
2023-03-06T15:33:23.082Z,12.10
2023-03-06T15:35:57.143Z,12.00
2023-03-06T15:38:33.799Z,11.98
2023-03-06T15:41:03.502Z,11.98
2023-03-06T15:43:36.075Z,11.91
2023-03-06T15:46:06.591Z,11.82
2023-03-06T15:48:35.361Z,11.80
2023-03-06T15:51:04.798Z,11.68
2023-03-06T15:53:34.443Z,11.47
2023-03-06T15:56:02.853Z,11.14
2023-03-06T15:58:34.582Z,11.02
2023-03-06T16:01:03.834Z,10.86
2023-03-06T16:03:32.248Z,10.74
2023-03-06T16:06:00.345Z,10.62
2023-03-06T16:08:28.831Z,10.49
2023-03-06T16:10:59.039Z,10.35
2023-03-06T16:13:28.968Z,10.11
2023-03-06T16:15:57.361Z,9.91
2023-03-06T16:18:25.333Z,9.76
2023-03-06T16:20:53.330Z,9.59
2023-03-06T16:23:21.602Z,9.46
2023-03-06T16:25:50.522Z,9.49
2023-03-06T16:28:19.889Z,9.50
2023-03-06T16:30:48.294Z,9.54
2023-03-06T16:33:16.385Z,9.54
2023-03-06T16:35:46.713Z,9.53
2023-03-06T16:38:16.263Z,9.54
2023-03-06T16:40:45.010Z,9.50
2023-03-06T16:43:16.022Z,9.41
2023-03-06T16:45:45.738Z,9.31
2023-03-06T16:48:17.896Z,9.23
2023-03-06T16:50:46.337Z,9.23
2023-03-06T16:53:15.358Z,9.23
2023-03-06T16:55:43.465Z,9.25
2023-03-06T16:58:11.758Z,9.28
2023-03-06T17:00:39.863Z,9.25
2023-03-06T17:03:09.141Z,9.17
2023-03-06T17:05:39.232Z,9.14
2023-03-06T17:08:07.247Z,9.04
2023-03-06T17:10:35.350Z,8.93
2023-03-06T17:13:03.722Z,8.88
2023-03-06T17:15:31.851Z,8.89
2023-03-06T17:18:00.040Z,8.87
2023-03-06T17:20:29.682Z,8.87
2023-03-06T17:22:57.730Z,8.84
2023-03-06T17:25:26.029Z,8.82
2023-03-06T17:27:54.500Z,8.84
2023-03-06T17:30:22.869Z,8.87
2023-03-06T17:32:50.965Z,8.87
2023-03-06T17:35:19.512Z,8.87
2023-03-06T17:37:48.987Z,8.89
2023-03-06T17:40:17.425Z,8.87
2023-03-06T17:42:45.835Z,8.81
2023-03-06T17:45:14.108Z,8.80
2023-03-06T17:47:42.116Z,8.79
2023-03-06T17:50:11.839Z,8.78
2023-03-06T17:52:39.926Z,8.73
2023-03-06T17:55:10.292Z,8.70
2023-03-06T17:57:38.688Z,8.69
2023-03-06T18:00:08.288Z,8.68
2023-03-06T18:02:40.247Z,8.69
2023-03-06T18:05:09.819Z,8.68
2023-03-06T18:07:38.169Z,8.67
2023-03-06T18:10:06.935Z,8.66
2023-03-06T18:12:36.528Z,8.65
2023-03-06T18:15:05.065Z,8.65
2023-03-06T18:17:33.091Z,8.66
2023-03-06T18:20:01.404Z,8.66
2023-03-06T18:22:29.547Z,8.62
2023-03-06T18:24:57.495Z,8.59
2023-03-06T18:27:25.831Z,8.57
2023-03-06T18:29:55.734Z,8.55
2023-03-06T18:32:23.781Z,8.53
2023-03-06T18:34:52.133Z,8.53
2023-03-06T18:37:20.291Z,8.55
2023-03-06T18:39:48.488Z,8.51
2023-03-06T18:42:16.900Z,8.56
2023-03-06T18:44:47.811Z,8.57
2023-03-06T18:47:17.582Z,8.60
2023-03-06T18:49:46.275Z,8.63
2023-03-06T18:52:14.530Z,8.61
2023-03-06T18:54:42.795Z,8.64
2023-03-06T18:57:12.141Z,8.64
2023-03-06T18:59:40.472Z,8.62
2023-03-06T19:02:08.588Z,8.64
2023-03-06T19:04:38.752Z,8.67
2023-03-06T19:07:07.245Z,8.69
2023-03-06T19:09:35.644Z,8.69
2023-03-06T19:12:04.256Z,8.71
2023-03-06T19:14:32.519Z,8.71
2023-03-06T19:17:00.589Z,8.73
2023-03-06T19:19:29.399Z,8.77
2023-03-06T19:21:59.632Z,8.78
2023-03-06T19:24:27.615Z,8.78
2023-03-06T19:26:55.822Z,8.77
2023-03-06T19:29:23.961Z,8.70
2023-03-06T19:31:52.280Z,8.67
2023-03-06T19:34:20.800Z,8.68
2023-03-06T19:36:51.275Z,8.67
2023-03-06T19:39:20.949Z,8.69
2023-03-06T19:41:49.296Z,8.68
2023-03-06T19:44:17.735Z,8.71
2023-03-06T19:46:45.927Z,8.70
2023-03-06T19:49:18.073Z,8.67
2023-03-06T19:51:46.304Z,8.61
2023-03-06T19:54:15.149Z,8.59
2023-03-06T19:56:44.666Z,8.55
2023-03-06T19:59:12.885Z,8.54
2023-03-06T20:01:41.240Z,8.56
2023-03-06T20:04:09.592Z,8.51
2023-03-06T20:06:38.856Z,8.48
2023-03-06T20:09:09.773Z,8.46
2023-03-06T20:11:38.886Z,8.46
2023-03-06T20:14:09.705Z,8.47
2023-03-06T20:16:38.688Z,8.44
2023-03-06T20:19:08.713Z,8.45
2023-03-06T20:21:38.224Z,8.44
2023-03-06T20:24:07.823Z,8.44
2023-03-06T20:26:37.796Z,8.47
2023-03-06T20:29:06.053Z,8.47
2023-03-06T20:31:36.455Z,8.47
2023-03-06T20:34:05.380Z,8.49
2023-03-06T20:36:36.032Z,8.43
2023-03-06T20:39:06.972Z,8.39
2023-03-06T20:41:35.473Z,8.41
2023-03-06T20:44:06.221Z,8.40
2023-03-06T20:46:36.212Z,8.41
2023-03-06T20:49:04.875Z,8.38
2023-03-06T20:51:36.092Z,8.36
2023-03-06T20:54:05.051Z,8.31
2023-03-06T20:56:34.935Z,8.28
2023-03-06T20:59:03.165Z,8.34
2023-03-06T21:01:33.731Z,8.30
2023-03-06T21:04:04.516Z,8.29
2023-03-06T21:06:32.984Z,8.22
2023-03-06T21:09:02.480Z,8.25
2023-03-06T21:11:30.653Z,8.22
2023-03-06T21:13:59.034Z,8.17
2023-03-06T21:16:28.268Z,8.15
2023-03-06T21:18:56.621Z,8.10
2023-03-06T21:21:28.670Z,8.06
2023-03-06T21:23:57.603Z,8.03
2023-03-06T21:26:28.734Z,7.99
2023-03-06T21:28:58.066Z,7.85
2023-03-06T21:31:27.129Z,7.82
2023-03-06T21:33:55.343Z,7.79
2023-03-06T21:36:24.025Z,7.76
2023-03-06T21:38:54.576Z,7.72
2023-03-06T21:41:25.632Z,7.60
2023-03-06T21:43:58.430Z,7.57
2023-03-06T21:46:27.470Z,7.49
2023-03-06T21:48:56.219Z,7.45
2023-03-06T21:51:25.575Z,7.38
2023-03-06T21:53:55.857Z,7.34
2023-03-06T21:56:28.413Z,7.31
2023-03-06T21:58:56.575Z,7.31
2023-03-06T22:01:27.582Z,7.31
2023-03-06T22:03:57.039Z,7.29
2023-03-06T22:06:26.730Z,7.23
2023-03-06T22:08:57.509Z,7.21
2023-03-06T22:11:27.498Z,7.16
2023-03-06T22:13:55.756Z,7.17
2023-03-06T22:16:23.834Z,7.18
2023-03-06T22:18:52.726Z,7.10
2023-03-06T22:21:23.055Z,7.12
2023-03-06T22:23:52.063Z,7.11
2023-03-06T22:26:21.464Z,7.09
2023-03-06T22:28:49.774Z,7.08
2023-03-06T22:31:19.705Z,7.05
2023-03-06T22:33:48.165Z,7.02
2023-03-06T22:36:16.735Z,7.00
2023-03-06T22:38:46.981Z,6.98
2023-03-06T22:41:16.305Z,6.98
2023-03-06T22:43:45.930Z,6.84
2023-03-06T22:46:15.732Z,6.85
2023-03-06T22:48:44.823Z,6.84
2023-03-06T22:51:15.258Z,6.83
2023-03-06T22:53:43.828Z,6.80
2023-03-06T22:56:14.060Z,6.77
2023-03-06T22:58:44.789Z,6.73
2023-03-06T23:01:16.626Z,6.69
2023-03-06T23:03:46.706Z,6.69
2023-03-06T23:06:16.740Z,6.65
2023-03-06T23:08:49.075Z,6.63
2023-03-06T23:11:19.491Z,6.63
2023-03-06T23:14:06.223Z,6.67
2023-03-06T23:16:54.444Z,6.63
2023-03-06T23:19:40.749Z,6.65
2023-03-06T23:22:27.443Z,6.67
2023-03-06T23:25:14.451Z,6.65
2023-03-06T23:27:43.056Z,6.61
2023-03-06T23:30:12.903Z,6.63
2023-03-06T23:32:44.258Z,6.61
2023-03-06T23:35:14.557Z,6.65
2023-03-06T23:37:42.680Z,6.69
2023-03-06T23:40:11.900Z,6.71
2023-03-06T23:42:40.337Z,6.76
2023-03-06T23:45:27.443Z,6.79
2023-03-06T23:48:15.633Z,6.81
2023-03-06T23:51:07.405Z,6.76
2023-03-06T23:53:56.299Z,6.78
2023-03-06T23:56:43.225Z,6.81
2023-03-06T23:59:30.014Z,6.83
